Hlavní strana
METAR-TAF:

METAR-TAF

Letiště :

Ponta Delgada, Azory, Portugalsko

zeměpisná šířka: 37-44N, zeměpisná délka: 025-42W, výška: 71 m

Aktuální stav počasí

Zpráva byla vytvořena před 30 minutami, v 18:30 UTC
Severoseverovýchodní vítr 7 kt, proměnlivý mezi severním a východním
Teplota 17°C
Vlhkost vzduchu 82%
Tlak 1028 hPa
Viditelnost 10 km a více
Skoro jasno ve výšce 2500 ft

METAR: LPPD 231830Z 03007KT 350V080 9999 FEW025 17/14 Q1028

Čas: 19:00 (19:00 UTC)

Předpověď počasí

Zpráva byla vytvořena před 2 hodinami a 0 minutami, v 17:00 UTC
Předpověď platná od 23 v 18 UTC do 24 v 18 UTC
vítr z různých směrů 5 kt
Viditelnost 10 km a více
Polojasno ve výšce 1800 ft
Dočasný
od 23 v 18 UTC do 24 v 18 UTC
Západoseverozápadní vítr 8 kt

TAF: LPPD 231700Z 2318/2418 VRB05KT 9999 SCT018 TEMPO 2318/2418 29008KT

Stav a předpovědi počasí z více než 4 000 letišť (zprávy METAR a TAF).

Červené a žluté tečky na mapě představují dostupné meteorologické stanice.

Když kurzor umístíte na tečku, zobrazí se název stanice.

Pak kliknutím zobrazíte stav a předpověď počasí.

Chcete-li změnit mapu, kliknutím na zelené tlačítko se znaménkem +mapu přiblížíte, kliknutím na zelené tlačítko se znaménkem – mapu oddálíte a kliknutím na zelené šipky přejdete na sousední mapy.


METAR-TAF: